sensor_id;sensor_type;location;lat;lon;timestamp;pressure;altitude;pressure_sealevel;temperature;humidity
78123;BME280;67376;44.802;10.332;2023-04-16T00:02:15;100518.66;;;18.69;40.24
78123;BME280;67376;44.802;10.332;2023-04-16T00:04:40;100524.31;;;18.68;39.92
78123;BME280;67376;44.802;10.332;2023-04-16T00:07:06;100516.19;;;18.68;39.90
78123;BME280;67376;44.802;10.332;2023-04-16T00:09:32;100518.91;;;18.68;40.79
78123;BME280;67376;44.802;10.332;2023-04-16T00:11:57;100509.97;;;18.67;40.42
78123;BME280;67376;44.802;10.332;2023-04-16T00:14:23;100508.06;;;18.68;40.92
78123;BME280;67376;44.802;10.332;2023-04-16T00:16:48;100507.25;;;18.67;40.00
78123;BME280;67376;44.802;10.332;2023-04-16T00:19:13;100504.56;;;18.67;40.72
78123;BME280;67376;44.802;10.332;2023-04-16T00:21:39;100500.88;;;18.62;40.01
78123;BME280;67376;44.802;10.332;2023-04-16T00:24:04;100502.06;;;18.66;40.37
78123;BME280;67376;44.802;10.332;2023-04-16T00:26:30;100494.19;;;18.64;41.04
78123;BME280;67376;44.802;10.332;2023-04-16T00:28:55;100500.19;;;18.66;40.54
78123;BME280;67376;44.802;10.332;2023-04-16T00:31:31;100496.66;;;18.66;40.73
78123;BME280;67376;44.802;10.332;2023-04-16T00:33:57;100500.19;;;18.66;40.80
78123;BME280;67376;44.802;10.332;2023-04-16T00:36:24;100493.97;;;18.66;40.67
78123;BME280;67376;44.802;10.332;2023-04-16T00:38:50;100495.63;;;18.67;39.97
78123;BME280;67376;44.802;10.332;2023-04-16T00:41:16;100492.09;;;18.66;40.76
78123;BME280;67376;44.802;10.332;2023-04-16T00:43:41;100495.25;;;18.63;40.12
78123;BME280;67376;44.802;10.332;2023-04-16T00:46:07;100499.59;;;18.64;40.37
78123;BME280;67376;44.802;10.332;2023-04-16T00:48:34;100499.00;;;18.62;39.95
78123;BME280;67376;44.802;10.332;2023-04-16T00:51:00;100505.59;;;18.66;40.47
78123;BME280;67376;44.802;10.332;2023-04-16T00:53:26;100504.41;;;18.62;40.02
78123;BME280;67376;44.802;10.332;2023-04-16T00:55:52;100505.00;;;18.64;40.41
78123;BME280;67376;44.802;10.332;2023-04-16T00:58:20;100508.53;;;18.65;40.92
78123;BME280;67376;44.802;10.332;2023-04-16T01:00:46;100504.19;;;18.64;40.27
78123;BME280;67376;44.802;10.332;2023-04-16T01:03:11;100506.06;;;18.63;40.02
78123;BME280;67376;44.802;10.332;2023-04-16T01:05:36;100504.41;;;18.62;40.03
78123;BME280;67376;44.802;10.332;2023-04-16T01:08:02;100509.00;;;18.62;40.07
78123;BME280;67376;44.802;10.332;2023-04-16T01:10:28;100511.47;;;18.63;40.46
78123;BME280;67376;44.802;10.332;2023-04-16T01:12:53;100509.81;;;18.62;40.35
78123;BME280;67376;44.802;10.332;2023-04-16T01:15:18;100510.06;;;18.61;40.15
78123;BME280;67376;44.802;10.332;2023-04-16T01:17:47;100511.69;;;18.62;39.97
78123;BME280;67376;44.802;10.332;2023-04-16T01:20:13;100514.19;;;18.63;40.46
78123;BME280;67376;44.802;10.332;2023-04-16T01:22:38;100509.00;;;18.62;40.39
78123;BME280;67376;44.802;10.332;2023-04-16T01:25:04;100507.94;;;18.63;40.03
78123;BME280;67376;44.802;10.332;2023-04-16T01:27:30;100507.34;;;18.61;40.35
78123;BME280;67376;44.802;10.332;2023-04-16T01:29:56;100508.16;;;18.61;40.40
78123;BME280;67376;44.802;10.332;2023-04-16T01:32:21;100502.75;;;18.61;39.94
78123;BME280;67376;44.802;10.332;2023-04-16T01:34:47;100501.94;;;18.61;40.07
78123;BME280;67376;44.802;10.332;2023-04-16T01:37:12;100501.53;;;18.57;39.86
78123;BME280;67376;44.802;10.332;2023-04-16T01:39:38;100508.38;;;18.60;40.09
78123;BME280;67376;44.802;10.332;2023-04-16T01:42:03;100508.38;;;18.60;40.16
78123;BME280;67376;44.802;10.332;2023-04-16T01:44:28;100510.25;;;18.59;40.45
78123;BME280;67376;44.802;10.332;2023-04-16T01:46:55;100502.13;;;18.59;40.64
78123;BME280;67376;44.802;10.332;2023-04-16T01:49:21;100500.25;;;18.60;40.18
78123;BME280;67376;44.802;10.332;2023-04-16T01:51:47;100497.56;;;18.60;40.17
78123;BME280;67376;44.802;10.332;2023-04-16T01:54:12;100498.59;;;18.59;40.49
78123;BME280;67376;44.802;10.332;2023-04-16T01:56:37;100492.38;;;18.58;40.23
78123;BME280;67376;44.802;10.332;2023-04-16T01:59:03;100488.63;;;18.59;40.56
78123;BME280;67376;44.802;10.332;2023-04-16T02:01:28;100491.31;;;18.59;39.59
78123;BME280;67376;44.802;10.332;2023-04-16T02:03:54;100479.78;;;18.52;40.24
78123;BME280;67376;44.802;10.332;2023-04-16T02:06:19;100484.25;;;18.58;40.58
78123;BME280;67376;44.802;10.332;2023-04-16T02:08:45;100491.56;;;18.58;39.73
78123;BME280;67376;44.802;10.332;2023-04-16T02:11:10;100497.78;;;18.58;39.80
78123;BME280;67376;44.802;10.332;2023-04-16T02:13:35;100497.19;;;18.56;39.94
78123;BME280;67376;44.802;10.332;2023-04-16T02:16:01;100498.84;;;18.57;40.64
78123;BME280;67376;44.802;10.332;2023-04-16T02:18:27;100501.53;;;18.57;39.76
78123;BME280;67376;44.802;10.332;2023-04-16T02:20:52;100495.31;;;18.57;40.66
78123;BME280;67376;44.802;10.332;2023-04-16T02:23:17;100496.13;;;18.57;40.62
78123;BME280;67376;44.802;10.332;2023-04-16T02:25:44;100499.66;;;18.58;39.75
78123;BME280;67376;44.802;10.332;2023-04-16T02:28:12;100494.56;;;18.49;40.23
78123;BME280;67376;44.802;10.332;2023-04-16T02:30:38;100505.28;;;18.56;40.09
78123;BME280;67376;44.802;10.332;2023-04-16T02:33:05;100513.19;;;18.58;40.09
78123;BME280;67376;44.802;10.332;2023-04-16T02:35:35;100506.13;;;18.57;40.57
78123;BME280;67376;44.802;10.332;2023-04-16T02:38:01;100506.13;;;18.57;40.04
78123;BME280;67376;44.802;10.332;2023-04-16T02:40:26;100494.47;;;18.56;39.99
78123;BME280;67376;44.802;10.332;2023-04-16T02:42:52;100495.53;;;18.55;40.21
78123;BME280;67376;44.802;10.332;2023-04-16T02:45:19;100508.22;;;18.55;40.51
78123;BME280;67376;44.802;10.332;2023-04-16T02:47:45;100502.00;;;18.54;40.21
78123;BME280;67376;44.802;10.332;2023-04-16T02:50:10;100501.16;;;18.54;40.33
78123;BME280;67376;44.802;10.332;2023-04-16T02:52:35;100508.22;;;18.55;40.10
78123;BME280;67376;44.802;10.332;2023-04-16T02:55:01;100507.41;;;18.54;40.47
78123;BME280;67376;44.802;10.332;2023-04-16T02:57:26;100511.16;;;18.53;40.32
78123;BME280;67376;44.802;10.332;2023-04-16T02:59:52;100506.81;;;18.52;40.11
78123;BME280;67376;44.802;10.332;2023-04-16T03:02:17;100511.16;;;18.53;40.87
78123;BME280;67376;44.802;10.332;2023-04-16T03:04:43;100515.75;;;18.53;40.00
78123;BME280;67376;44.802;10.332;2023-04-16T03:07:08;100520.31;;;18.52;40.30
78123;BME280;67376;44.802;10.332;2023-04-16T03:09:34;100523.03;;;18.52;40.46
78123;BME280;67376;44.802;10.332;2023-04-16T03:12:00;100523.03;;;18.52;40.62
78123;BME280;67376;44.802;10.332;2023-04-16T03:14:29;100525.97;;;18.51;40.54
78123;BME280;67376;44.802;10.332;2023-04-16T03:16:55;100529.50;;;18.51;40.19
78123;BME280;67376;44.802;10.332;2023-04-16T03:19:20;100529.50;;;18.51;40.58
78123;BME280;67376;44.802;10.332;2023-04-16T03:21:46;100525.97;;;18.51;40.47
78123;BME280;67376;44.802;10.332;2023-04-16T03:24:11;100531.59;;;18.49;40.00
78123;BME280;67376;44.802;10.332;2023-04-16T03:26:37;100534.31;;;18.49;40.53
78123;BME280;67376;44.802;10.332;2023-04-16T03:29:02;100531.59;;;18.49;40.88
78123;BME280;67376;44.802;10.332;2023-04-16T03:31:28;100533.47;;;18.48;40.45
78123;BME280;67376;44.802;10.332;2023-04-16T03:33:53;100536.19;;;18.48;40.51
78123;BME280;67376;44.802;10.332;2023-04-16T03:36:19;100535.38;;;18.48;40.83
78123;BME280;67376;44.802;10.332;2023-04-16T03:38:44;100538.09;;;18.48;40.55
78123;BME280;67376;44.802;10.332;2023-04-16T03:41:10;100540.78;;;18.48;39.88
78123;BME280;67376;44.802;10.332;2023-04-16T03:43:35;100540.78;;;18.48;39.71
78123;BME280;67376;44.802;10.332;2023-04-16T03:46:01;100545.38;;;18.47;40.25
78123;BME280;67376;44.802;10.332;2023-04-16T03:48:26;100546.66;;;18.45;39.88
78123;BME280;67376;44.802;10.332;2023-04-16T03:50:51;100546.41;;;18.46;39.96
78123;BME280;67376;44.802;10.332;2023-04-16T03:53:17;100549.13;;;18.46;40.50
78123;BME280;67376;44.802;10.332;2023-04-16T03:55:42;100554.75;;;18.45;40.43
78123;BME280;67376;44.802;10.332;2023-04-16T03:58:08;100553.72;;;18.46;40.31
78123;BME280;67376;44.802;10.332;2023-04-16T04:00:33;100556.19;;;18.47;40.23
78123;BME280;67376;44.802;10.332;2023-04-16T04:02:59;100559.94;;;18.46;40.78
78123;BME280;67376;44.802;10.332;2023-04-16T04:05:24;100561.00;;;18.45;39.88
78123;BME280;67376;44.802;10.332;2023-04-16T04:07:50;100555.59;;;18.45;40.26
78123;BME280;67376;44.802;10.332;2023-04-16T04:10:15;100566.63;;;18.44;39.77
78123;BME280;67376;44.802;10.332;2023-04-16T04:12:41;100562.88;;;18.45;40.54
78123;BME280;67376;44.802;10.332;2023-04-16T04:15:07;100559.34;;;18.44;40.63
78123;BME280;67376;44.802;10.332;2023-04-16T04:17:32;100565.78;;;18.43;40.39
78123;BME280;67376;44.802;10.332;2023-04-16T04:19:58;100573.69;;;18.45;40.19
78123;BME280;67376;44.802;10.332;2023-04-16T04:22:23;100571.19;;;18.43;40.65
78123;BME280;67376;44.802;10.332;2023-04-16T04:24:49;100576.59;;;18.43;40.37
78123;BME280;67376;44.802;10.332;2023-04-16T04:27:14;100580.16;;;18.44;40.56
78123;BME280;67376;44.802;10.332;2023-04-16T04:29:40;100590.97;;;18.44;40.40
78123;BME280;67376;44.802;10.332;2023-04-16T04:32:05;100586.59;;;18.43;39.96
78123;BME280;67376;44.802;10.332;2023-04-16T04:34:31;100591.19;;;18.42;40.34
78123;BME280;67376;44.802;10.332;2023-04-16T04:36:56;100600.13;;;18.43;40.86
78123;BME280;67376;44.802;10.332;2023-04-16T04:39:21;100603.88;;;18.42;40.30
78123;BME280;67376;44.802;10.332;2023-04-16T04:41:47;100604.91;;;18.41;40.25
78123;BME280;67376;44.802;10.332;2023-04-16T04:44:13;100600.56;;;18.40;40.11
78123;BME280;67376;44.802;10.332;2023-04-16T04:46:39;100598.47;;;18.42;40.30
78123;BME280;67376;44.802;10.332;2023-04-16T04:49:05;100603.03;;;18.41;39.94
78123;BME280;67376;44.802;10.332;2023-04-16T04:51:30;100611.16;;;18.41;40.12
78123;BME280;67376;44.802;10.332;2023-04-16T04:53:56;100608.44;;;18.41;39.99
78123;BME280;67376;44.802;10.332;2023-04-16T04:56:21;100610.31;;;18.41;39.76
78123;BME280;67376;44.802;10.332;2023-04-16T04:58:49;100614.91;;;18.40;40.30
78123;BME280;67376;44.802;10.332;2023-04-16T05:01:15;100607.84;;;18.39;40.52
78123;BME280;67376;44.802;10.332;2023-04-16T05:03:40;100615.97;;;18.39;39.63
78123;BME280;67376;44.802;10.332;2023-04-16T05:06:06;100623.25;;;18.39;40.31
78123;BME280;67376;44.802;10.332;2023-04-16T05:08:31;100622.41;;;18.38;40.41
78123;BME280;67376;44.802;10.332;2023-04-16T05:10:57;100627.59;;;18.40;40.31
78123;BME280;67376;44.802;10.332;2023-04-16T05:13:22;100632.19;;;18.39;39.94
78123;BME280;67376;44.802;10.332;2023-04-16T05:15:48;100634.28;;;18.37;40.57
78123;BME280;67376;44.802;10.332;2023-04-16T05:18:13;100640.50;;;18.38;40.44
78123;BME280;67376;44.802;10.332;2023-04-16T05:20:38;100642.16;;;18.39;39.83
78123;BME280;67376;44.802;10.332;2023-04-16T05:23:04;100647.78;;;18.37;40.31
78123;BME280;67376;44.802;10.332;2023-04-16T05:25:30;100652.97;;;18.39;39.89
78123;BME280;67376;44.802;10.332;2023-04-16T05:27:55;100654.63;;;18.40;40.76
78123;BME280;67376;44.802;10.332;2023-04-16T05:30:21;100659.22;;;18.39;40.32
78123;BME280;67376;44.802;10.332;2023-04-16T05:32:46;100659.81;;;18.41;40.77
78123;BME280;67376;44.802;10.332;2023-04-16T05:35:11;100658.97;;;18.41;40.46
78123;BME280;67376;44.802;10.332;2023-04-16T05:37:37;100663.34;;;18.42;40.15
78123;BME280;67376;44.802;10.332;2023-04-16T05:40:02;100659.59;;;18.43;40.62
78123;BME280;67376;44.802;10.332;2023-04-16T05:42:28;100668.53;;;18.43;40.91
78123;BME280;67376;44.802;10.332;2023-04-16T05:44:53;100676.84;;;18.42;40.73
78123;BME280;67376;44.802;10.332;2023-04-16T05:47:19;100679.34;;;18.43;40.24
78123;BME280;67376;44.802;10.332;2023-04-16T05:49:44;100678.50;;;18.43;40.18
78123;BME280;67376;44.802;10.332;2023-04-16T05:52:09;100687.44;;;18.43;41.10
78123;BME280;67376;44.802;10.332;2023-04-16T05:54:35;100679.34;;;18.43;40.98
78123;BME280;67376;44.802;10.332;2023-04-16T05:57:00;100687.81;;;18.47;40.00
78123;BME280;67376;44.802;10.332;2023-04-16T05:59:26;100679.09;;;18.45;40.41
78123;BME280;67376;44.802;10.332;2023-04-16T06:01:52;100684.06;;;18.48;40.21
78123;BME280;67376;44.802;10.332;2023-04-16T06:04:17;100684.06;;;18.48;41.04
78123;BME280;67376;44.802;10.332;2023-04-16T06:06:42;100683.25;;;18.47;40.26
78123;BME280;67376;44.802;10.332;2023-04-16T06:09:08;100684.28;;;18.46;41.16
78123;BME280;67376;44.802;10.332;2023-04-16T06:11:33;100689.09;;;18.44;40.72
78123;BME280;67376;44.802;10.332;2023-04-16T06:13:58;100687.22;;;18.45;40.57
78123;BME280;67376;44.802;10.332;2023-04-16T06:16:24;100685.56;;;18.44;41.18
78123;BME280;67376;44.802;10.332;2023-04-16T06:18:50;100685.56;;;18.44;41.16
78123;BME280;67376;44.802;10.332;2023-04-16T06:21:15;100680.97;;;18.44;41.11
78123;BME280;67376;44.802;10.332;2023-04-16T06:23:40;100688.28;;;18.44;40.73
78123;BME280;67376;44.802;10.332;2023-04-16T06:26:06;100683.47;;;18.46;41.09
78123;BME280;67376;44.802;10.332;2023-04-16T06:28:31;100691.56;;;18.46;41.90
78123;BME280;67376;44.802;10.332;2023-04-16T06:30:56;100687.00;;;18.46;41.00
78123;BME280;67376;44.802;10.332;2023-04-16T06:33:22;100690.53;;;18.47;41.37
78123;BME280;67376;44.802;10.332;2023-04-16T06:35:48;100699.47;;;18.47;41.20
78123;BME280;67376;44.802;10.332;2023-04-16T06:38:14;100696.97;;;18.46;40.91
78123;BME280;67376;44.802;10.332;2023-04-16T06:40:40;100691.09;;;18.49;41.52
78123;BME280;67376;44.802;10.332;2023-04-16T06:43:05;100692.97;;;18.48;41.18
78123;BME280;67376;44.802;10.332;2023-04-16T06:45:31;100698.16;;;18.50;40.86
78123;BME280;67376;44.802;10.332;2023-04-16T06:47:57;100698.63;;;18.47;41.70
78123;BME280;67376;44.802;10.332;2023-04-16T06:50:26;100701.09;;;18.48;41.83
78123;BME280;67376;44.802;10.332;2023-04-16T06:52:55;100698.16;;;18.50;41.27
78123;BME280;67376;44.802;10.332;2023-04-16T06:55:21;100704.16;;;18.52;41.41
78123;BME280;67376;44.802;10.332;2023-04-16T06:57:46;100700.63;;;18.52;41.72
78123;BME280;67376;44.802;10.332;2023-04-16T07:00:12;100706.03;;;18.52;41.70
78123;BME280;67376;44.802;10.332;2023-04-16T07:02:37;100702.28;;;18.53;41.79
78123;BME280;67376;44.802;10.332;2023-04-16T07:05:03;100698.53;;;18.54;41.87
78123;BME280;67376;44.802;10.332;2023-04-16T07:07:28;100698.53;;;18.54;41.66
78123;BME280;67376;44.802;10.332;2023-04-16T07:09:54;100693.13;;;18.54;40.93
78123;BME280;67376;44.802;10.332;2023-04-16T07:12:19;100697.47;;;18.55;40.99
78123;BME280;67376;44.802;10.332;2023-04-16T07:14:45;100688.31;;;18.56;41.82
78123;BME280;67376;44.802;10.332;2023-04-16T07:17:11;100690.19;;;18.55;41.74
78123;BME280;67376;44.802;10.332;2023-04-16T07:19:36;100689.53;;;18.60;41.68
78123;BME280;67376;44.802;10.332;2023-04-16T07:22:02;100691.63;;;18.58;41.34
78123;BME280;67376;44.802;10.332;2023-04-16T07:24:28;100696.81;;;18.59;42.47
78123;BME280;67376;44.802;10.332;2023-04-16T07:26:53;100697.22;;;18.63;41.40
78123;BME280;67376;44.802;10.332;2023-04-16T07:29:19;100693.47;;;18.64;41.39
78123;BME280;67376;44.802;10.332;2023-04-16T07:31:44;100690.31;;;18.67;41.87
78123;BME280;67376;44.802;10.332;2023-04-16T07:34:10;100688.44;;;18.67;42.27
78123;BME280;67376;44.802;10.332;2023-04-16T07:36:35;100687.31;;;18.75;42.54
78123;BME280;67376;44.802;10.332;2023-04-16T07:39:01;100697.91;;;18.76;42.55
78123;BME280;67376;44.802;10.332;2023-04-16T07:41:27;100692.25;;;18.78;41.74
78123;BME280;67376;44.802;10.332;2023-04-16T07:43:54;100698.50;;;18.78;41.63
78123;BME280;67376;44.802;10.332;2023-04-16T07:46:19;100701.66;;;18.75;42.38
78123;BME280;67376;44.802;10.332;2023-04-16T07:48:45;100698.50;;;18.78;42.74
78123;BME280;67376;44.802;10.332;2023-04-16T07:51:11;100701.22;;;18.78;43.05
78123;BME280;67376;44.802;10.332;2023-04-16T07:53:36;100697.44;;;18.79;42.93
78123;BME280;67376;44.802;10.332;2023-04-16T07:56:02;100704.13;;;18.77;42.81
78123;BME280;67376;44.802;10.332;2023-04-16T07:58:27;100694.59;;;18.74;42.72
78123;BME280;67376;44.802;10.332;2023-04-16T08:00:52;100703.97;;;18.72;43.04
78123;BME280;67376;44.802;10.332;2023-04-16T08:03:18;100704.44;;;18.69;42.65
78123;BME280;67376;44.802;10.332;2023-04-16T08:05:43;100711.28;;;18.71;43.02
78123;BME280;67376;44.802;10.332;2023-04-16T08:08:09;100716.22;;;18.74;43.01
78123;BME280;67376;44.802;10.332;2023-04-16T08:10:34;100718.94;;;18.74;42.70
78123;BME280;67376;44.802;10.332;2023-04-16T08:13:00;100717.88;;;18.75;43.32
78123;BME280;67376;44.802;10.332;2023-04-16T08:15:25;100725.09;;;18.82;42.59
78123;BME280;67376;44.802;10.332;2023-04-16T08:17:51;100723.81;;;18.84;42.60
78123;BME280;67376;44.802;10.332;2023-04-16T08:20:17;100727.34;;;18.85;42.93
78123;BME280;67376;44.802;10.332;2023-04-16T08:22:42;100734.78;;;18.89;42.38
78123;BME280;67376;44.802;10.332;2023-04-16T08:25:08;100735.84;;;18.88;42.01
78123;BME280;67376;44.802;10.332;2023-04-16T08:27:33;100745.63;;;18.89;42.00
78123;BME280;67376;44.802;10.332;2023-04-16T08:29:59;100737.94;;;18.86;42.48
78123;BME280;67376;44.802;10.332;2023-04-16T08:32:25;100738.41;;;18.83;42.63
78123;BME280;67376;44.802;10.332;2023-04-16T08:34:51;100739.81;;;18.86;42.36
78123;BME280;67376;44.802;10.332;2023-04-16T08:37:16;100735.84;;;18.88;42.02
78123;BME280;67376;44.802;10.332;2023-04-16T08:39:42;100745.38;;;18.91;41.81
78123;BME280;67376;44.802;10.332;2023-04-16T08:42:13;100742.22;;;18.94;42.57
78123;BME280;67376;44.802;10.332;2023-04-16T08:44:45;100747.66;;;18.94;41.75
78123;BME280;67376;44.802;10.332;2023-04-16T08:47:12;100744.94;;;18.94;41.99
78123;BME280;67376;44.802;10.332;2023-04-16T08:49:43;100753.66;;;18.96;41.50
78123;BME280;67376;44.802;10.332;2023-04-16T08:52:22;100758.38;;;19.00;41.31
78123;BME280;67376;44.802;10.332;2023-04-16T08:55:11;100757.56;;;19.00;41.79
78123;BME280;67376;44.802;10.332;2023-04-16T08:57:53;100766.28;;;19.02;42.10
78123;BME280;67376;44.802;10.332;2023-04-16T09:00:21;100770.63;;;19.03;42.13
78123;BME280;67376;44.802;10.332;2023-04-16T09:02:48;100771.31;;;18.98;41.80
78123;BME280;67376;44.802;10.332;2023-04-16T09:05:14;100766.59;;;18.94;42.32
78123;BME280;67376;44.802;10.332;2023-04-16T09:07:43;100766.72;;;18.99;41.30
78123;BME280;67376;44.802;10.332;2023-04-16T09:10:09;100765.31;;;18.96;42.22
78123;BME280;67376;44.802;10.332;2023-04-16T09:12:36;100765.06;;;18.98;41.65
78123;BME280;67376;44.802;10.332;2023-04-16T09:15:02;100774.84;;;18.99;42.02
78123;BME280;67376;44.802;10.332;2023-04-16T09:17:29;100770.72;;;18.96;42.16
78123;BME280;67376;44.802;10.332;2023-04-16T09:19:55;100772.38;;;18.97;41.74
78123;BME280;67376;44.802;10.332;2023-04-16T09:22:20;100771.53;;;18.97;41.79
78123;BME280;67376;44.802;10.332;2023-04-16T09:24:46;100769.06;;;18.95;42.09
78123;BME280;67376;44.802;10.332;2023-04-16T09:27:11;100770.50;;;18.98;42.20
78123;BME280;67376;44.802;10.332;2023-04-16T09:29:38;100767.56;;;18.99;41.30
78123;BME280;67376;44.802;10.332;2023-04-16T09:32:09;100774.63;;;19.00;42.29
78123;BME280;67376;44.802;10.332;2023-04-16T09:34:59;100766.88;;;19.04;41.17
78123;BME280;67376;44.802;10.332;2023-04-16T09:37:26;100770.19;;;19.06;41.86
78123;BME280;67376;44.802;10.332;2023-04-16T09:39:57;100762.63;;;19.08;41.34
78123;BME280;67376;44.802;10.332;2023-04-16T09:42:24;100769.09;;;19.07;41.32
78123;BME280;67376;44.802;10.332;2023-04-16T09:44:52;100763.47;;;19.08;42.07
78123;BME280;67376;44.802;10.332;2023-04-16T09:47:17;100764.06;;;19.10;41.86
78123;BME280;67376;44.802;10.332;2023-04-16T09:49:43;100766.53;;;19.12;41.72
78123;BME280;67376;44.802;10.332;2023-04-16T09:52:20;100764.91;;;19.11;41.15
78123;BME280;67376;44.802;10.332;2023-04-16T09:54:49;100754.66;;;19.13;41.73
78123;BME280;67376;44.802;10.332;2023-04-16T09:57:22;100754.06;;;19.11;40.89
78123;BME280;67376;44.802;10.332;2023-04-16T09:59:55;100750.31;;;19.12;41.56
78123;BME280;67376;44.802;10.332;2023-04-16T10:02:28;100754.66;;;19.13;41.56
78123;BME280;67376;44.802;10.332;2023-04-16T10:04:54;100757.16;;;19.14;40.97
78123;BME280;67376;44.802;10.332;2023-04-16T10:07:21;100755.50;;;19.13;41.32
78123;BME280;67376;44.802;10.332;2023-04-16T10:09:48;100757.38;;;19.13;40.80
78123;BME280;67376;44.802;10.332;2023-04-16T10:12:14;100760.09;;;19.13;41.20
78123;BME280;67376;44.802;10.332;2023-04-16T10:14:40;100765.28;;;19.14;40.68
78123;BME280;67376;44.802;10.332;2023-04-16T10:17:07;100748.66;;;19.11;40.13
78123;BME280;67376;44.802;10.332;2023-04-16T10:19:33;100754.66;;;19.13;40.51
78123;BME280;67376;44.802;10.332;2023-04-16T10:21:59;100753.84;;;19.12;40.74
78123;BME280;67376;44.802;10.332;2023-04-16T10:24:25;100752.19;;;19.11;40.04
78123;BME280;67376;44.802;10.332;2023-04-16T10:26:51;100757.81;;;19.10;40.46
78123;BME280;67376;44.802;10.332;2023-04-16T10:29:18;100751.81;;;19.08;40.84
78123;BME280;67376;44.802;10.332;2023-04-16T10:31:45;100746.88;;;19.05;40.10
78123;BME280;67376;44.802;10.332;2023-04-16T10:34:11;100752.88;;;19.07;40.08
78123;BME280;67376;44.802;10.332;2023-04-16T10:36:37;100746.63;;;19.06;40.13
78123;BME280;67376;44.802;10.332;2023-04-16T10:39:09;100748.16;;;19.02;40.76
78123;BME280;67376;44.802;10.332;2023-04-16T10:41:35;100747.72;;;19.05;40.59
78123;BME280;67376;44.802;10.332;2023-04-16T10:44:08;100745.84;;;19.06;40.24
78123;BME280;67376;44.802;10.332;2023-04-16T10:46:38;100745.25;;;19.04;40.57
78123;BME280;67376;44.802;10.332;2023-04-16T10:49:24;100747.72;;;19.05;40.27
78123;BME280;67376;44.802;10.332;2023-04-16T10:54:20;100736.06;;;19.05;39.46
78123;BME280;67376;44.802;10.332;2023-04-16T10:56:47;100737.13;;;19.04;39.71
78123;BME280;67376;44.802;10.332;2023-04-16T10:59:17;100740.28;;;19.01;40.00
78123;BME280;67376;44.802;10.332;2023-04-16T11:01:44;100734.63;;;19.02;40.40
78123;BME280;67376;44.802;10.332;2023-04-16T11:04:37;100737.13;;;19.04;40.29
78123;BME280;67376;44.802;10.332;2023-04-16T11:07:04;100731.94;;;19.02;39.92
78123;BME280;67376;44.802;10.332;2023-04-16T11:12:18;100724.88;;;19.01;40.06
78123;BME280;67376;44.802;10.332;2023-04-16T11:14:58;100720.28;;;19.02;39.66
78123;BME280;67376;44.802;10.332;2023-04-16T11:17:28;100715.09;;;19.00;38.99
78123;BME280;67376;44.802;10.332;2023-04-16T11:19:54;100721.34;;;19.01;39.39
78123;BME280;67376;44.802;10.332;2023-04-16T11:22:20;100717.56;;;19.02;39.67
78123;BME280;67376;44.802;10.332;2023-04-16T11:24:46;100718.03;;;18.99;38.59
78123;BME280;67376;44.802;10.332;2023-04-16T11:27:14;100711.78;;;18.98;39.83
78123;BME280;67376;44.802;10.332;2023-04-16T11:29:40;100715.78;;;18.96;39.42
78123;BME280;67376;44.802;10.332;2023-04-16T11:32:05;100713.66;;;18.98;38.82
78123;BME280;67376;44.802;10.332;2023-04-16T11:34:31;100711.78;;;18.98;39.73
78123;BME280;67376;44.802;10.332;2023-04-16T11:36:57;100715.56;;;18.97;38.81
78123;BME280;67376;44.802;10.332;2023-04-16T11:39:22;100714.34;;;18.93;39.33
78123;BME280;67376;44.802;10.332;2023-04-16T11:41:49;100720.00;;;18.92;39.61
78123;BME280;67376;44.802;10.332;2023-04-16T11:44:24;100711.41;;;18.95;39.01
78123;BME280;67376;44.802;10.332;2023-04-16T11:46:51;100707.28;;;18.92;39.23
78123;BME280;67376;44.802;10.332;2023-04-16T11:49:25;100711.88;;;18.92;39.33
78123;BME280;67376;44.802;10.332;2023-04-16T11:51:51;100715.19;;;18.94;38.72
78123;BME280;67376;44.802;10.332;2023-04-16T11:54:21;100710.22;;;18.91;39.12
78123;BME280;67376;44.802;10.332;2023-04-16T11:56:48;100700.22;;;18.91;38.50
78123;BME280;67376;44.802;10.332;2023-04-16T11:59:14;100705.88;;;18.90;38.76
78123;BME280;67376;44.802;10.332;2023-04-16T12:01:45;100701.50;;;18.89;38.88
78123;BME280;67376;44.802;10.332;2023-04-16T12:04:12;100704.44;;;18.87;38.22
78123;BME280;67376;44.802;10.332;2023-04-16T12:06:38;100699.03;;;18.87;38.44
78123;BME280;67376;44.802;10.332;2023-04-16T12:09:25;100693.84;;;18.86;38.47
78123;BME280;67376;44.802;10.332;2023-04-16T12:11:51;100690.09;;;18.87;37.81
78123;BME280;67376;44.802;10.332;2023-04-16T12:14:17;100686.31;;;18.88;37.83
78123;BME280;67376;44.802;10.332;2023-04-16T12:16:43;100685.50;;;18.87;38.06
78123;BME280;67376;44.802;10.332;2023-04-16T12:19:10;100685.13;;;18.84;37.59
78123;BME280;67376;44.802;10.332;2023-04-16T12:21:47;100684.31;;;18.83;37.62
78123;BME280;67376;44.802;10.332;2023-04-16T12:24:17;100684.06;;;18.85;37.49
78123;BME280;67376;44.802;10.332;2023-04-16T12:26:46;100682.19;;;18.85;37.61
78123;BME280;67376;44.802;10.332;2023-04-16T12:29:26;100691.13;;;18.86;37.76
78123;BME280;67376;44.802;10.332;2023-04-16T12:31:54;100684.91;;;18.85;37.61
78123;BME280;67376;44.802;10.332;2023-04-16T12:34:20;100671.59;;;18.84;38.12
78123;BME280;67376;44.802;10.332;2023-04-16T12:36:47;100666.19;;;18.84;37.99
78123;BME280;67376;44.802;10.332;2023-04-16T12:39:13;100672.66;;;18.83;38.31
78123;BME280;67376;44.802;10.332;2023-04-16T12:41:41;100671.81;;;18.82;37.58
78123;BME280;67376;44.802;10.332;2023-04-16T12:44:25;100667.84;;;18.85;37.95